createdAt,value
2019-02-22T00:00:12.803Z,14.93
2019-02-22T00:02:43.287Z,15.63
2019-02-22T00:05:13.866Z,15.10
2019-02-22T00:07:44.376Z,13.20
2019-02-22T00:10:14.850Z,17.33
2019-02-22T00:12:45.352Z,15.03
2019-02-22T00:15:15.885Z,15.20
2019-02-22T00:17:48.088Z,17.03
2019-02-22T00:20:18.570Z,16.13
2019-02-22T00:22:49.071Z,14.80
2019-02-22T00:25:19.568Z,16.77
2019-02-22T00:27:51.951Z,17.90
2019-02-22T00:30:22.417Z,16.20
2019-02-22T00:32:52.915Z,12.93
2019-02-22T00:35:23.414Z,11.70
2019-02-22T00:37:53.944Z,13.90
2019-02-22T00:40:24.501Z,12.43
2019-02-22T00:42:55.441Z,11.80
2019-02-22T00:45:25.966Z,13.23
2019-02-22T00:47:58.058Z,13.20
2019-02-22T00:50:30.068Z,10.70
2019-02-22T00:53:00.609Z,9.47
2019-02-22T00:55:31.181Z,8.90
2019-02-22T00:58:01.725Z,10.60
2019-02-22T01:00:32.297Z,11.60
2019-02-22T01:03:02.776Z,13.80
2019-02-22T01:05:33.259Z,8.70
2019-02-22T01:08:03.755Z,10.10
2019-02-22T01:10:35.134Z,10.10
2019-02-22T01:13:06.334Z,9.50
2019-02-22T01:15:38.665Z,10.87
2019-02-22T01:18:09.222Z,10.50
2019-02-22T01:20:41.375Z,10.33
2019-02-22T01:23:11.934Z,9.53
2019-02-22T01:25:42.385Z,9.40
2019-02-22T01:28:12.876Z,11.73
2019-02-22T01:30:43.332Z,13.93
2019-02-22T01:33:13.886Z,16.00
2019-02-22T01:35:44.445Z,16.83
2019-02-22T01:38:14.932Z,16.33
2019-02-22T01:40:45.389Z,12.40
2019-02-22T01:43:15.938Z,10.37
2019-02-22T01:45:46.454Z,10.70
2019-02-22T01:48:16.908Z,9.50
2019-02-22T01:50:47.389Z,20.10
2019-02-22T01:53:17.851Z,16.60
2019-02-22T01:55:48.340Z,9.17
2019-02-22T01:58:18.848Z,8.90
2019-02-22T02:00:49.373Z,10.00
2019-02-22T02:03:19.932Z,14.07
2019-02-22T02:05:50.427Z,9.20
2019-02-22T02:08:20.968Z,9.17
2019-02-22T02:10:54.389Z,12.53
2019-02-22T02:13:23.835Z,15.60
2019-02-22T02:15:54.430Z,18.80
2019-02-22T02:18:24.900Z,8.70
2019-02-22T02:20:55.580Z,7.57
2019-02-22T02:23:26.037Z,7.20
2019-02-22T02:25:56.545Z,6.20
2019-02-22T02:28:27.007Z,7.63
2019-02-22T02:30:57.573Z,6.67
2019-02-22T02:33:28.091Z,5.80
2019-02-22T02:35:58.560Z,13.80
2019-02-22T02:38:29.090Z,16.67
2019-02-22T02:41:09.911Z,13.67
2019-02-22T02:43:31.783Z,13.90
2019-02-22T02:46:02.254Z,10.23
2019-02-22T02:48:32.761Z,5.90
2019-02-22T02:51:03.239Z,9.47
2019-02-22T02:53:33.727Z,11.07
2019-02-22T02:56:04.245Z,10.77
2019-02-22T02:58:34.697Z,5.57
2019-02-22T03:01:06.358Z,5.70
2019-02-22T03:03:36.911Z,5.47
2019-02-22T03:06:11.735Z,8.10
2019-02-22T03:08:42.224Z,9.13
2019-02-22T03:11:20.850Z,8.70
2019-02-22T03:13:44.891Z,10.37
2019-02-22T03:16:15.369Z,10.13
2019-02-22T03:18:45.825Z,9.37
2019-02-22T03:21:17.423Z,7.17
2019-02-22T03:23:47.828Z,6.30
2019-02-22T03:26:18.344Z,5.17
2019-02-22T03:28:48.796Z,12.70
2019-02-22T03:31:19.280Z,8.97
2019-02-22T03:33:49.747Z,8.90
2019-02-22T03:36:20.254Z,9.40
2019-02-22T03:38:50.789Z,23.13
2019-02-22T03:41:32.349Z,33.40
2019-02-22T03:43:53.473Z,13.20
2019-02-22T03:46:23.970Z,10.30
2019-02-22T03:48:54.432Z,11.47
2019-02-22T03:51:24.932Z,11.03
2019-02-22T03:53:57.605Z,11.23
2019-02-22T03:56:27.665Z,9.13
2019-02-22T03:58:58.158Z,11.17
2019-02-22T04:01:30.133Z,11.60
2019-02-22T04:04:00.690Z,10.33
2019-02-22T04:06:31.177Z,8.50
2019-02-22T04:09:01.743Z,9.13
2019-02-22T04:11:44.681Z,8.80
2019-02-22T04:14:04.376Z,8.70
2019-02-22T04:16:34.830Z,7.73
2019-02-22T04:19:05.403Z,8.13
2019-02-22T04:21:35.857Z,6.87
2019-02-22T04:24:06.348Z,6.90
2019-02-22T04:26:36.799Z,5.60
2019-02-22T04:29:07.343Z,6.53
2019-02-22T04:31:37.802Z,8.00
2019-02-22T04:34:08.292Z,7.33
2019-02-22T04:36:38.747Z,9.10
2019-02-22T04:39:09.300Z,6.53
2019-02-22T04:41:39.776Z,6.97
2019-02-22T04:44:10.433Z,5.73
2019-02-22T04:46:40.937Z,5.97
2019-02-22T04:49:11.417Z,5.83
2019-02-22T04:51:41.877Z,6.93
2019-02-22T04:54:12.394Z,6.80
2019-02-22T04:56:42.858Z,5.17
2019-02-22T04:59:14.901Z,7.53
2019-02-22T05:01:45.462Z,4.83
2019-02-22T05:04:15.939Z,6.10
2019-02-22T05:06:46.422Z,5.60
2019-02-22T05:09:16.883Z,5.40
2019-02-22T05:11:47.460Z,5.23
2019-02-22T05:14:17.915Z,15.73
2019-02-22T05:16:48.405Z,6.30
2019-02-22T05:19:18.901Z,6.43
2019-02-22T05:21:49.399Z,6.20
2019-02-22T05:24:19.924Z,12.23
2019-02-22T05:26:50.404Z,6.20
2019-02-22T05:29:22.931Z,6.60
2019-02-22T05:31:53.407Z,11.97
2019-02-22T05:34:23.880Z,7.13
2019-02-22T05:36:54.364Z,8.00
2019-02-22T05:39:24.846Z,6.10
2019-02-22T05:41:57.078Z,7.23
2019-02-22T05:44:27.579Z,5.80
2019-02-22T05:47:00.631Z,8.20
2019-02-22T05:49:30.598Z,5.00
2019-02-22T05:52:01.131Z,6.73
2019-02-22T05:54:33.033Z,5.83
2019-02-22T05:57:03.487Z,4.77
2019-02-22T05:59:33.981Z,5.53
2019-02-22T06:02:04.445Z,7.90
2019-02-22T06:04:34.947Z,9.30
2019-02-22T06:07:05.408Z,5.00
2019-02-22T06:09:35.904Z,5.50
2019-02-22T06:12:06.431Z,6.17
2019-02-22T06:14:36.932Z,48.77
2019-02-22T06:17:14.567Z,11.57
2019-02-22T06:19:39.583Z,21.57
2019-02-22T06:22:10.046Z,24.70
2019-02-22T06:24:40.544Z,28.37
2019-02-22T06:27:11.086Z,8.07
2019-02-22T06:29:41.554Z,8.40
2019-02-22T06:32:12.691Z,32.50
2019-02-22T06:34:44.814Z,8.63
2019-02-22T06:37:15.287Z,4.93
2019-02-22T06:39:45.811Z,4.87
2019-02-22T06:42:17.856Z,13.90
2019-02-22T06:44:48.320Z,4.20
2019-02-22T06:47:18.810Z,5.40
2019-02-22T06:49:49.279Z,5.50
2019-02-22T06:52:23.005Z,7.50
2019-02-22T06:54:53.509Z,5.23
2019-02-22T06:57:23.973Z,6.70
2019-02-22T06:59:54.494Z,9.93
2019-02-22T07:02:24.962Z,7.37
2019-02-22T07:04:55.447Z,11.10
2019-02-22T07:07:26.887Z,13.13
2019-02-22T07:09:57.475Z,12.80
2019-02-22T07:12:29.594Z,13.57
2019-02-22T07:15:00.244Z,15.27
2019-02-22T07:17:30.936Z,13.27
2019-02-22T07:20:01.456Z,13.63
2019-02-22T07:22:31.926Z,11.70
2019-02-22T07:25:02.428Z,9.40
2019-02-22T07:27:33.448Z,10.60
2019-02-22T07:30:04.820Z,7.17
2019-02-22T07:32:35.738Z,9.10
2019-02-22T07:35:09.900Z,11.10
2019-02-22T07:37:40.619Z,8.70
2019-02-22T07:40:11.083Z,8.70
2019-02-22T07:42:41.580Z,8.70
2019-02-22T07:45:12.373Z,15.20
2019-02-22T07:47:42.870Z,26.47
2019-02-22T07:50:13.485Z,15.27
2019-02-22T07:52:45.308Z,9.50
2019-02-22T07:55:15.798Z,9.67
2019-02-22T07:57:46.268Z,7.27
2019-02-22T08:00:17.007Z,7.60
2019-02-22T08:02:47.570Z,11.53
2019-02-22T08:05:18.046Z,6.33
2019-02-22T08:07:49.218Z,5.93
2019-02-22T08:10:19.705Z,2.40
2019-02-22T08:12:50.177Z,1.60
2019-02-22T08:15:20.668Z,1.40
2019-02-22T08:17:51.137Z,1.07
2019-02-22T08:20:21.613Z,1.37
2019-02-22T08:22:52.094Z,1.10
2019-02-22T08:25:22.647Z,1.63
2019-02-22T08:27:54.456Z,1.40
2019-02-22T08:30:26.703Z,1.57
2019-02-22T08:32:57.174Z,1.00
2019-02-22T08:35:27.651Z,10.07
2019-02-22T08:37:58.132Z,0.90
2019-02-22T08:40:28.649Z,1.30
2019-02-22T08:42:59.140Z,1.10
2019-02-22T08:45:32.716Z,0.87
2019-02-22T08:48:03.238Z,1.47
2019-02-22T08:50:33.907Z,1.10
2019-02-22T08:53:04.796Z,1.97
2019-02-22T08:55:36.702Z,1.77
2019-02-22T08:58:07.326Z,1.37
2019-02-22T09:00:37.804Z,1.23
2019-02-22T09:03:08.333Z,1.17
2019-02-22T09:05:38.897Z,1.10
2019-02-22T09:08:09.355Z,0.90
2019-02-22T09:10:39.860Z,0.90
2019-02-22T09:13:10.319Z,1.50
2019-02-22T09:15:40.814Z,0.70
2019-02-22T09:18:11.298Z,0.90
2019-02-22T09:20:41.775Z,6.83
2019-02-22T09:23:12.308Z,1.80
2019-02-22T09:25:42.808Z,21.27
2019-02-22T09:28:13.277Z,5.00
2019-02-22T09:30:49.488Z,1.27
2019-02-22T09:36:11.835Z,1.43
2019-02-22T09:38:42.293Z,1.30
2019-02-22T09:41:12.882Z,1.80
2019-02-22T09:43:54.369Z,1.30
2019-02-22T09:46:15.553Z,1.10
2019-02-22T09:48:46.002Z,1.20
2019-02-22T09:51:16.541Z,1.10
2019-02-22T09:53:47.070Z,1.00
2019-02-22T09:56:17.567Z,1.43
2019-02-22T09:58:48.122Z,1.40
2019-02-22T10:01:18.571Z,1.03
2019-02-22T10:03:49.055Z,3.07
2019-02-22T10:06:19.506Z,1.27
2019-02-22T10:08:49.994Z,2.07
2019-02-22T10:11:21.989Z,1.50
2019-02-22T10:13:52.494Z,1.73
2019-02-22T10:16:22.947Z,1.20
2019-02-22T10:18:53.434Z,1.63
2019-02-22T10:21:23.895Z,1.97
2019-02-22T10:23:54.421Z,2.10
2019-02-22T10:26:24.902Z,2.13
2019-02-22T10:28:55.395Z,1.87
2019-02-22T10:31:25.847Z,2.10
2019-02-22T10:33:56.333Z,2.10
2019-02-22T10:36:26.890Z,2.33
2019-02-22T10:38:57.370Z,2.10
2019-02-22T10:41:27.889Z,3.17
2019-02-22T10:43:58.368Z,2.63
2019-02-22T10:46:29.317Z,2.00
2019-02-22T10:48:59.873Z,2.20
2019-02-22T10:51:30.339Z,2.30
2019-02-22T10:54:00.829Z,4.50
2019-02-22T10:56:31.307Z,3.53
2019-02-22T10:59:01.762Z,3.17
2019-02-22T11:01:32.247Z,3.60
2019-02-22T11:04:02.695Z,3.10
2019-02-22T11:06:35.061Z,3.00
2019-02-22T11:09:07.617Z,2.90
2019-02-22T11:11:38.162Z,2.70
2019-02-22T11:14:08.637Z,4.80
2019-02-22T11:16:39.095Z,2.87
2019-02-22T11:19:09.592Z,2.90
2019-02-22T11:21:40.054Z,4.40
2019-02-22T11:24:10.541Z,5.67
2019-02-22T11:26:40.981Z,2.73
2019-02-22T11:29:11.467Z,3.30
2019-02-22T11:31:42.094Z,2.80
2019-02-22T11:34:13.758Z,3.87
2019-02-22T11:36:45.008Z,3.07
2019-02-22T11:39:15.461Z,2.93
2019-02-22T11:41:45.945Z,3.27
2019-02-22T11:44:16.435Z,2.90
2019-02-22T11:46:47.074Z,3.50
2019-02-22T11:49:17.562Z,6.70
2019-02-22T11:51:48.096Z,3.20
2019-02-22T11:54:19.514Z,3.50
2019-02-22T11:56:49.997Z,2.60
2019-02-22T11:59:20.459Z,2.47
2019-02-22T12:01:50.948Z,2.90
2019-02-22T12:04:21.399Z,3.70
2019-02-22T12:06:53.752Z,3.37
2019-02-22T12:09:24.219Z,2.93
2019-02-22T12:11:54.710Z,2.63
2019-02-22T12:14:25.416Z,3.47
2019-02-22T12:16:55.910Z,2.90
2019-02-22T12:19:26.928Z,3.40
2019-02-22T12:21:57.510Z,3.07
2019-02-22T12:24:27.979Z,3.30
2019-02-22T12:26:58.441Z,3.90
2019-02-22T12:29:28.918Z,4.03
2019-02-22T12:31:59.481Z,3.53
2019-02-22T12:34:29.934Z,3.73
2019-02-22T12:37:00.416Z,3.43
2019-02-22T12:39:33.593Z,3.50
2019-02-22T12:42:07.769Z,3.27
2019-02-22T12:44:38.249Z,4.20
2019-02-22T12:47:09.961Z,3.67
2019-02-22T12:49:41.914Z,4.70
2019-02-22T12:52:12.362Z,4.03
2019-02-22T12:54:44.478Z,3.47
2019-02-22T12:57:14.926Z,3.30
2019-02-22T12:59:45.445Z,4.50
2019-02-22T13:02:17.289Z,4.00
2019-02-22T13:04:48.048Z,3.23
2019-02-22T13:07:18.594Z,4.73
2019-02-22T13:09:49.738Z,3.60
2019-02-22T13:12:22.026Z,7.43
2019-02-22T13:14:52.489Z,6.00
2019-02-22T13:17:30.512Z,3.63
2019-02-22T13:19:56.677Z,4.37
2019-02-22T13:22:28.317Z,5.37
2019-02-22T13:24:58.783Z,4.23
2019-02-22T13:27:29.268Z,3.60
2019-02-22T13:29:59.712Z,3.00
2019-02-22T13:32:30.198Z,3.90
2019-02-22T13:35:00.694Z,7.07
2019-02-22T13:37:31.163Z,3.80
2019-02-22T13:40:03.523Z,3.80
2019-02-22T13:42:34.002Z,2.90
2019-02-22T13:45:06.676Z,5.00
2019-02-22T13:47:37.239Z,5.50
2019-02-22T13:50:18.524Z,4.67
2019-02-22T13:52:49.053Z,4.53
2019-02-22T13:55:20.376Z,3.57
2019-02-22T13:57:51.747Z,3.80
2019-02-22T14:00:22.484Z,3.73
2019-02-22T14:02:52.933Z,4.33
2019-02-22T14:05:23.405Z,4.67
2019-02-22T14:07:57.519Z,5.63
2019-02-22T14:10:28.043Z,4.60
2019-02-22T14:12:58.595Z,4.10
2019-02-22T14:15:37.631Z,3.77
2019-02-22T14:18:01.360Z,6.10
2019-02-22T14:20:52.703Z,4.10
2019-02-22T14:23:24.232Z,3.07
2019-02-22T14:25:56.267Z,4.93
2019-02-22T14:28:26.736Z,3.70
2019-02-22T14:30:57.212Z,4.43
2019-02-22T14:33:27.678Z,3.93
2019-02-22T14:35:58.192Z,5.53
2019-02-22T14:38:28.784Z,10.50
2019-02-22T14:40:59.331Z,4.67
2019-02-22T14:43:29.826Z,5.77
2019-02-22T14:46:00.308Z,5.00
2019-02-22T14:48:30.766Z,4.70
2019-02-22T14:51:01.252Z,3.70
2019-02-22T14:53:31.729Z,3.80
2019-02-22T14:56:02.279Z,5.47
2019-02-22T14:58:32.812Z,3.43
2019-02-22T15:01:03.339Z,4.37
2019-02-22T15:03:35.142Z,4.40
2019-02-22T15:06:05.686Z,4.70
2019-02-22T15:08:36.181Z,5.90
2019-02-22T15:11:06.625Z,4.30
2019-02-22T15:13:38.638Z,3.50
2019-02-22T15:16:19.740Z,3.23
2019-02-22T15:18:50.265Z,3.63
2019-02-22T15:21:20.734Z,4.43
2019-02-22T15:23:51.209Z,3.13
2019-02-22T15:26:21.700Z,4.13
2019-02-22T15:28:52.193Z,3.87
2019-02-22T15:31:22.653Z,3.40
2019-02-22T15:33:53.138Z,3.37
2019-02-22T15:36:23.604Z,3.57
2019-02-22T15:38:54.095Z,4.43
2019-02-22T15:41:24.564Z,7.70
2019-02-22T15:43:55.754Z,4.60
2019-02-22T15:46:26.221Z,3.40
2019-02-22T15:49:00.539Z,2.90
2019-02-22T15:51:31.096Z,3.50
2019-02-22T15:54:01.593Z,3.23
2019-02-22T15:56:32.035Z,3.07
2019-02-22T15:59:04.058Z,7.27
2019-02-22T16:01:34.568Z,5.53
2019-02-22T16:04:15.829Z,5.90
2019-02-22T16:06:47.138Z,3.20
2019-02-22T16:09:17.672Z,3.33
2019-02-22T16:11:48.514Z,3.27
2019-02-22T16:14:19.118Z,3.90
2019-02-22T16:16:49.607Z,5.27
2019-02-22T16:19:20.073Z,10.73
2019-02-22T16:21:50.553Z,9.50
2019-02-22T16:24:21.116Z,9.93
2019-02-22T16:26:53.252Z,19.47
2019-02-22T16:29:23.731Z,12.83
2019-02-22T16:31:54.226Z,5.60
2019-02-22T16:34:24.681Z,4.57
2019-02-22T16:36:55.232Z,4.00
2019-02-22T16:39:25.795Z,3.93
2019-02-22T16:41:56.269Z,4.47
2019-02-22T16:44:26.815Z,5.23
2019-02-22T16:46:58.036Z,18.83
2019-02-22T16:49:28.538Z,9.70
2019-02-22T16:52:00.880Z,12.07
2019-02-22T16:54:33.183Z,5.47
2019-02-22T16:57:03.662Z,7.60
2019-02-22T16:59:34.140Z,5.27
2019-02-22T17:02:06.485Z,4.70
2019-02-22T17:04:36.949Z,4.07
2019-02-22T17:07:07.509Z,5.70
2019-02-22T17:09:37.959Z,6.23
2019-02-22T17:12:08.541Z,3.93
2019-02-22T17:14:39.079Z,4.23
2019-02-22T17:17:10.129Z,3.70
2019-02-22T17:19:40.630Z,3.57
2019-02-22T17:22:11.117Z,5.23
2019-02-22T17:24:43.892Z,5.00
2019-02-22T17:27:14.449Z,5.20
2019-02-22T17:29:44.938Z,4.10
2019-02-22T17:32:15.414Z,4.43
2019-02-22T17:34:45.907Z,5.47
2019-02-22T17:37:18.845Z,5.77
2019-02-22T17:39:49.331Z,5.13
2019-02-22T17:42:19.799Z,8.80
2019-02-22T17:44:51.375Z,3.57
2019-02-22T17:47:21.889Z,6.20
2019-02-22T17:49:55.427Z,4.50
2019-02-22T17:52:25.957Z,6.20
2019-02-22T17:54:56.599Z,6.00
2019-02-22T17:57:27.099Z,4.20
2019-02-22T17:59:57.583Z,5.63
2019-02-22T18:02:28.116Z,7.57
2019-02-22T18:04:59.813Z,3.97
2019-02-22T18:07:30.311Z,5.60
2019-02-22T18:10:02.205Z,4.30
2019-02-22T18:12:32.718Z,4.30
2019-02-22T18:15:04.244Z,5.43
2019-02-22T18:17:34.778Z,4.33
2019-02-22T18:20:08.156Z,3.90
2019-02-22T18:22:38.649Z,4.17
2019-02-22T18:25:10.347Z,13.23
2019-02-22T18:27:41.029Z,7.73
2019-02-22T18:30:15.796Z,7.67
2019-02-22T18:32:46.286Z,4.17
2019-02-22T18:35:16.784Z,5.83
2019-02-22T18:37:47.266Z,9.43
2019-02-22T18:40:23.000Z,8.87
2019-02-22T18:42:53.585Z,5.43
2019-02-22T18:45:24.229Z,5.23
2019-02-22T18:47:54.693Z,3.50
2019-02-22T18:50:25.205Z,4.27
2019-02-22T18:52:55.699Z,5.40
2019-02-22T18:55:26.180Z,6.73
2019-02-22T18:57:56.707Z,4.03
2019-02-22T19:00:27.255Z,5.30
2019-02-22T19:02:57.741Z,5.93
2019-02-22T19:05:29.939Z,4.10
2019-02-22T19:08:00.398Z,6.57
2019-02-22T19:10:31.351Z,5.70
2019-02-22T19:13:01.844Z,4.43
2019-02-22T19:15:33.583Z,5.53
2019-02-22T19:18:06.485Z,5.33
2019-02-22T19:20:37.039Z,7.20
2019-02-22T19:23:07.577Z,3.90
2019-02-22T19:25:38.420Z,4.40
2019-02-22T19:28:08.935Z,3.00
2019-02-22T19:30:39.469Z,6.20
2019-02-22T19:33:10.047Z,4.83
2019-02-22T19:35:40.561Z,6.30
2019-02-22T19:38:11.054Z,6.23
2019-02-22T19:40:43.119Z,6.33
2019-02-22T19:43:15.222Z,7.07
2019-02-22T19:45:45.801Z,6.57
2019-02-22T19:48:16.377Z,4.77
2019-02-22T19:50:46.875Z,7.40
2019-02-22T19:53:17.375Z,6.13
2019-02-22T19:55:47.965Z,6.33
2019-02-22T19:58:19.821Z,21.03
2019-02-22T20:00:52.979Z,7.07
2019-02-22T20:03:23.481Z,4.93
2019-02-22T20:05:53.982Z,8.53
2019-02-22T20:08:24.507Z,2.83
2019-02-22T20:10:56.172Z,4.60
2019-02-22T20:13:26.665Z,4.83
2019-02-22T20:15:57.139Z,5.47
2019-02-22T20:18:27.645Z,9.60
2019-02-22T20:20:58.219Z,6.17
2019-02-22T20:23:28.695Z,5.17
2019-02-22T20:25:59.224Z,5.37
2019-02-22T20:28:29.705Z,4.40
2019-02-22T20:31:00.213Z,4.90
2019-02-22T20:33:30.688Z,5.23
2019-02-22T20:36:01.185Z,6.33
2019-02-22T20:38:31.666Z,8.17
2019-02-22T20:41:02.466Z,5.07
2019-02-22T20:43:32.957Z,5.53
2019-02-22T20:46:03.527Z,10.47
2019-02-22T20:48:34.045Z,4.80
2019-02-22T20:51:04.533Z,6.60
2019-02-22T20:53:35.026Z,7.20
2019-02-22T20:56:07.071Z,6.40
2019-02-22T20:58:37.619Z,5.07
2019-02-22T21:01:14.802Z,6.93
2019-02-22T21:03:41.705Z,4.53
2019-02-22T21:06:12.208Z,7.60
2019-02-22T21:08:42.736Z,7.10
2019-02-22T21:11:13.259Z,8.27
2019-02-22T21:13:43.725Z,6.00
2019-02-22T21:16:14.237Z,5.20
2019-02-22T21:18:46.314Z,9.33
2019-02-22T21:21:16.984Z,7.77
2019-02-22T21:23:47.452Z,5.70
2019-02-22T21:26:18.706Z,8.10
2019-02-22T21:28:49.171Z,5.60
2019-02-22T21:31:19.681Z,4.67
2019-02-22T21:33:50.130Z,6.10
2019-02-22T21:36:20.636Z,9.73
2019-02-22T21:38:51.130Z,13.63
2019-02-22T21:41:21.741Z,8.23
2019-02-22T21:43:52.234Z,5.80
2019-02-22T21:46:22.701Z,7.70
2019-02-22T21:48:53.218Z,9.27
2019-02-22T21:51:25.648Z,9.63
2019-02-22T21:53:55.920Z,5.60
2019-02-22T21:56:27.569Z,7.07
2019-02-22T21:58:58.079Z,7.40
2019-02-22T22:01:28.561Z,9.83
2019-02-22T22:03:59.075Z,7.07
2019-02-22T22:06:29.625Z,5.10
2019-02-22T22:09:00.127Z,7.00
2019-02-22T22:11:31.559Z,8.13
2019-02-22T22:14:02.060Z,3.80
2019-02-22T22:16:32.535Z,6.93
2019-02-22T22:19:03.034Z,5.30
2019-02-22T22:21:33.503Z,7.73
2019-02-22T22:24:04.017Z,4.17
2019-02-22T22:26:34.545Z,5.00
2019-02-22T22:29:05.058Z,6.17
2019-02-22T22:31:35.539Z,6.20
2019-02-22T22:34:06.045Z,5.37
2019-02-22T22:36:37.549Z,8.60
2019-02-22T22:39:08.118Z,4.07
2019-02-22T22:41:40.060Z,3.67
2019-02-22T22:44:12.116Z,5.27
2019-02-22T22:46:42.579Z,4.57
2019-02-22T22:49:13.082Z,5.63
2019-02-22T22:51:45.239Z,4.90
2019-02-22T22:54:15.735Z,4.93
2019-02-22T22:56:47.737Z,6.23
2019-02-22T22:59:18.243Z,6.43
2019-02-22T23:01:49.218Z,4.20
2019-02-22T23:04:19.834Z,4.03
2019-02-22T23:06:50.292Z,5.53
2019-02-22T23:09:22.076Z,5.10
2019-02-22T23:11:55.751Z,7.10
2019-02-22T23:14:26.242Z,6.73
2019-02-22T23:16:56.755Z,4.70
2019-02-22T23:19:28.260Z,4.50
2019-02-22T23:22:12.173Z,4.40
2019-02-22T23:24:42.683Z,2.87
2019-02-22T23:27:13.168Z,4.83
2019-02-22T23:29:43.675Z,4.20
2019-02-22T23:32:14.150Z,6.50
2019-02-22T23:34:44.671Z,5.37
2019-02-22T23:37:15.166Z,4.50
2019-02-22T23:39:45.629Z,3.43
2019-02-22T23:42:16.129Z,3.43
2019-02-22T23:44:46.604Z,6.07
2019-02-22T23:47:17.679Z,3.90
2019-02-22T23:49:48.176Z,6.63
2019-02-22T23:52:18.669Z,3.60
2019-02-22T23:54:49.165Z,4.57
2019-02-22T23:57:19.694Z,4.60
2019-02-22T23:59:52.688Z,9.23
